Time;durP1;ratioP1;P1;durP2;ratioP2;P2;SDS_P1;SDS_P2;PMS_P1;PMS_P2;Temp;Humidity;BMP_temperature;BMP_pressure;BME280_temperature;BME280_humidity;BME280_pressure;Samples;Min_cycle;Max_cycle;Signal;HPM_P1;HPM_P2
2021/03/06 00:02:20;;;;;;;10.73;6.03;;;;;;;3.66;32.36;102937.03;5094734;28;20039;-74
2021/03/06 00:04:48;;;;;;;8.93;5.57;;;;;;;3.64;32.38;102936.16;5097802;28;20042;-74
2021/03/06 00:07:15;;;;;;;9.85;5.60;;;;;;;3.63;32.33;102944.31;5096969;28;20032;-74
2021/03/06 00:09:43;;;;;;;11.63;6.07;;;;;;;3.62;32.29;102942.53;5091496;28;20811;-74
2021/03/06 00:12:10;;;;;;;8.98;5.65;;;;;;;3.61;32.80;102938.09;5082652;28;20044;-74
2021/03/06 00:14:38;;;;;;;9.40;5.75;;;;;;;3.60;32.58;102941.69;5098288;28;20077;-73
2021/03/06 00:17:06;;;;;;;8.75;5.50;;;;;;;3.58;32.76;102939.00;5086384;28;20039;-74
2021/03/06 00:19:33;;;;;;;9.73;5.57;;;;;;;3.57;32.34;102949.84;5100905;28;20044;-74
2021/03/06 00:22:01;;;;;;;8.77;5.35;;;;;;;3.55;32.55;102951.69;5093419;28;20060;-74
2021/03/06 00:24:29;;;;;;;9.70;5.10;;;;;;;3.54;32.70;102947.22;5092111;28;20598;-74
2021/03/06 00:26:57;;;;;;;8.27;4.90;;;;;;;3.52;32.78;102951.78;5088182;28;20033;-74
2021/03/06 00:29:24;;;;;;;7.13;4.75;;;;;;;3.50;32.81;102954.53;5084228;28;20409;-74
2021/03/06 00:31:53;;;;;;;6.60;4.10;;;;;;;3.49;32.59;102957.28;5092038;28;20135;-73
2021/03/06 00:34:21;;;;;;;6.97;4.43;;;;;;;3.48;32.53;102953.66;5094268;28;20117;-73
2021/03/06 00:36:48;;;;;;;7.68;4.18;;;;;;;3.47;32.83;102959.13;5092202;28;20036;-73
2021/03/06 00:39:15;;;;;;;7.03;4.40;;;;;;;3.44;32.46;102961.91;5103550;28;20078;-73
2021/03/06 00:41:43;;;;;;;5.75;4.18;;;;;;;3.44;32.90;102967.31;5089569;28;20056;-73
2021/03/06 00:44:10;;;;;;;7.57;4.10;;;;;;;3.41;32.67;102968.28;5065658;28;20114;-73
2021/03/06 00:46:38;;;;;;;7.43;4.38;;;;;;;3.41;32.78;102959.25;5090150;28;20062;-73
2021/03/06 00:49:07;;;;;;;7.57;4.38;;;;;;;3.40;32.76;102954.78;5076077;28;20044;-73
2021/03/06 00:51:35;;;;;;;7.85;4.70;;;;;;;3.38;32.78;102959.31;5088478;28;20032;-73
2021/03/06 00:54:11;;;;;;;7.15;3.90;;;;;;;3.36;32.96;102959.38;5077240;28;20468;-73
2021/03/06 00:56:38;;;;;;;6.32;3.72;;;;;;;3.36;33.07;102962.09;5088313;28;20044;-74
2021/03/06 00:59:06;;;;;;;6.13;4.00;;;;;;;3.36;32.81;102959.38;5087388;28;20129;-73
2021/03/06 01:01:34;;;;;;;6.63;3.85;;;;;;;3.34;33.17;102958.53;5090580;28;20111;-73
2021/03/06 01:04:03;;;;;;;6.72;4.30;;;;;;;3.32;33.04;102963.97;5081980;28;20229;-73
2021/03/06 01:06:31;;;;;;;5.90;3.50;;;;;;;3.32;32.89;102958.53;5100495;28;20123;-73
2021/03/06 01:09:00;;;;;;;6.40;3.90;;;;;;;3.30;32.89;102956.78;5096808;28;20387;-73
2021/03/06 01:11:29;;;;;;;7.28;4.10;;;;;;;3.29;33.25;102953.19;5090955;28;20051;-73
2021/03/06 01:13:57;;;;;;;6.05;3.78;;;;;;;3.29;32.87;102955.00;5093067;28;20036;-73
2021/03/06 01:16:31;;;;;;;6.43;3.70;;;;;;;3.27;33.19;102948.78;5099953;28;20068;-73
2021/03/06 01:18:59;;;;;;;7.72;3.42;;;;;;;3.25;33.06;102946.09;5069749;28;20139;-73
2021/03/06 01:21:27;;;;;;;5.05;3.25;;;;;;;3.23;33.30;102949.75;5092770;28;20131;-73
2021/03/06 01:23:55;;;;;;;6.55;3.60;;;;;;;3.24;32.95;102951.53;5076084;28;20136;-73
2021/03/06 01:26:22;;;;;;;5.47;3.50;;;;;;;3.21;32.86;102947.06;5090594;28;20036;-74
2021/03/06 01:28:50;;;;;;;5.07;3.50;;;;;;;3.20;33.30;102942.63;5092474;28;20123;-73
2021/03/06 01:31:17;;;;;;;6.18;3.53;;;;;;;3.19;33.02;102946.25;5075965;28;20361;-73
2021/03/06 01:33:44;;;;;;;6.00;3.47;;;;;;;3.19;32.94;102945.34;5092900;28;20493;-73
2021/03/06 01:36:12;;;;;;;7.57;3.55;;;;;;;3.16;33.20;102927.38;5093843;28;20617;-73
2021/03/06 01:38:39;;;;;;;5.95;3.60;;;;;;;3.13;33.00;102930.13;5105756;28;20463;-73
2021/03/06 01:41:07;;;;;;;6.07;3.38;;;;;;;3.16;33.13;102931.88;5083337;28;20048;-73
2021/03/06 01:43:35;;;;;;;7.20;4.15;;;;;;;3.12;33.42;102931.06;5091536;28;20039;-73
2021/03/06 01:46:02;;;;;;;6.85;3.78;;;;;;;3.11;33.30;102932.00;5097418;28;20070;-73
2021/03/06 01:48:29;;;;;;;6.40;3.22;;;;;;;3.10;33.41;102924.81;5089768;28;20048;-73
2021/03/06 01:50:57;;;;;;;7.03;3.70;;;;;;;3.08;33.13;102929.34;5088579;28;20363;-73
2021/03/06 01:53:25;;;;;;;5.07;3.53;;;;;;;3.07;33.38;102938.38;5088983;28;20503;-73
2021/03/06 01:55:53;;;;;;;6.57;3.70;;;;;;;3.05;33.02;102931.22;5090142;28;20119;-73
2021/03/06 01:58:21;;;;;;;6.28;3.50;;;;;;;3.03;32.96;102936.69;5087704;28;20040;-74
2021/03/06 02:00:49;;;;;;;6.70;3.38;;;;;;;3.03;33.15;102936.69;5090482;28;20049;-73
2021/03/06 02:03:18;;;;;;;6.53;3.45;;;;;;;3.00;33.34;102931.34;5082379;28;20063;-73
2021/03/06 02:05:46;;;;;;;6.20;3.25;;;;;;;2.99;33.29;102932.25;5098538;28;20040;-74
2021/03/06 02:08:13;;;;;;;5.18;3.13;;;;;;;2.97;33.46;102931.38;5093749;28;20043;-73
2021/03/06 02:10:43;;;;;;;6.03;3.60;;;;;;;2.96;33.08;102937.72;5088693;28;20040;-73
2021/03/06 02:13:28;;;;;;;4.75;3.00;;;;;;;2.96;33.48;102935.00;5090258;28;20048;-73
2021/03/06 02:16:09;;;;;;;5.22;3.72;;;;;;;2.94;33.49;102931.47;5072411;28;20055;-73
2021/03/06 02:18:42;;;;;;;5.53;3.50;;;;;;;2.91;33.73;102929.72;5072876;28;20092;-74
2021/03/06 02:21:29;;;;;;;6.88;3.65;;;;;;;2.91;33.81;102931.53;5088834;28;20119;-73
2021/03/06 02:24:21;;;;;;;5.65;3.72;;;;;;;2.89;33.48;102925.25;5089557;28;20040;-73
2021/03/06 02:27:05;;;;;;;6.13;3.63;;;;;;;2.86;33.83;102926.22;5087015;28;20525;-73
2021/03/06 02:29:40;;;;;;;8.48;3.92;;;;;;;2.86;33.98;102930.75;5072945;28;20046;-73
2021/03/06 02:32:11;;;;;;;6.53;3.70;;;;;;;2.85;33.41;102926.25;5076183;28;20407;-73
2021/03/06 02:34:43;;;;;;;6.60;4.00;;;;;;;2.83;33.67;102926.28;5094357;28;20036;-73
2021/03/06 02:37:11;;;;;;;6.32;3.40;;;;;;;2.81;33.51;102925.41;5076302;28;20123;-73
2021/03/06 02:39:44;;;;;;;6.57;3.90;;;;;;;2.81;33.83;102925.41;5102397;28;20130;-73
2021/03/06 02:42:12;;;;;;;;;;;;;;;2.58;33.87;102924.13;5076317;28;20055;-73
2021/03/06 02:44:41;;;;;;;6.82;3.67;;;;;;;2.73;33.68;102924.69;5093306;28;20360;-73
2021/03/06 02:47:10;;;;;;;7.47;4.10;;;;;;;2.74;33.61;102925.59;5093658;28;20411;-73
2021/03/06 02:49:37;;;;;;;6.63;4.13;;;;;;;2.73;33.87;102922.00;5096070;28;20078;-74
2021/03/06 02:52:05;;;;;;;7.50;3.97;;;;;;;2.73;33.75;102929.22;5087477;28;20067;-74
2021/03/06 02:54:32;;;;;;;7.28;3.90;;;;;;;2.71;33.53;102921.13;5087636;28;20031;-72
2021/03/06 02:57:00;;;;;;;6.63;3.95;;;;;;;2.71;33.76;102926.53;5095853;28;20040;-73
2021/03/06 02:59:48;;;;;;;6.45;4.10;;;;;;;2.72;33.75;102927.41;5102250;28;20067;-73
2021/03/06 03:02:26;;;;;;;6.43;3.95;;;;;;;2.69;33.77;102932.91;5095364;28;20395;-73
2021/03/06 03:05:07;;;;;;;6.45;3.53;;;;;;;2.69;34.16;102927.50;5078374;28;20040;-73
2021/03/06 03:07:47;;;;;;;6.70;3.83;;;;;;;2.66;34.06;102938.38;5102745;28;20503;-75
2021/03/06 03:10:15;;;;;;;6.65;3.95;;;;;;;2.65;33.83;102940.16;5089112;28;20495;-73
2021/03/06 03:12:48;;;;;;;9.10;4.55;;;;;;;2.65;33.98;102931.19;5075240;28;20044;-73
2021/03/06 03:15:19;;;;;;;6.33;3.67;;;;;;;2.62;33.78;102936.66;5097816;28;20044;-74
2021/03/06 03:17:49;;;;;;;6.53;3.80;;;;;;;2.61;33.64;102934.88;5094191;28;20043;-73
2021/03/06 03:20:25;;;;;;;7.22;3.80;;;;;;;2.61;34.18;102942.97;5094812;28;20070;-73
2021/03/06 03:22:57;;;;;;;6.85;4.18;;;;;;;2.58;33.87;102938.53;5090307;28;20531;-74
2021/03/06 03:25:27;;;;;;;6.10;3.75;;;;;;;2.57;33.99;102936.75;5093960;28;20159;-74
2021/03/06 03:27:55;;;;;;;6.43;3.83;;;;;;;2.56;33.96;102943.94;5076071;28;20048;-74
2021/03/06 03:30:25;;;;;;;7.07;4.07;;;;;;;2.55;33.95;102941.28;5094599;28;20495;-74
2021/03/06 03:32:54;;;;;;;9.05;5.47;;;;;;;2.53;33.88;102944.03;5093100;28;20036;-74
2021/03/06 03:35:24;;;;;;;12.05;6.80;;;;;;;2.52;33.90;102944.94;5087842;28;20032;-74
2021/03/06 03:37:56;;;;;;;11.05;5.78;;;;;;;2.50;34.16;102944.06;5092597;28;20054;-74
2021/03/06 03:40:24;;;;;;;7.97;4.90;;;;;;;2.48;33.76;102948.59;5092227;28;20064;-74
2021/03/06 03:42:51;;;;;;;7.80;4.70;;;;;;;2.47;33.96;102945.94;5074398;28;20066;-74
2021/03/06 03:45:21;;;;;;;10.48;5.63;;;;;;;2.45;34.23;102954.09;5087634;28;20047;-73
2021/03/06 03:47:49;;;;;;;9.07;5.65;;;;;;;2.44;33.74;102954.13;5098125;28;20114;-74
2021/03/06 03:50:18;;;;;;;8.98;5.30;;;;;;;2.42;34.02;102948.75;5095976;28;20392;-74
2021/03/06 03:52:48;;;;;;;8.93;5.25;;;;;;;2.41;33.86;102943.38;5091972;28;20047;-73
2021/03/06 03:55:16;;;;;;;9.43;5.10;;;;;;;2.39;34.32;102945.19;5095978;28;20044;-74
2021/03/06 03:57:45;;;;;;;10.80;6.13;;;;;;;2.38;34.35;102938.91;5092606;28;20043;-74
2021/03/06 04:00:16;;;;;;;8.40;5.60;;;;;;;2.37;34.17;102930.84;5062005;28;20148;-74
2021/03/06 04:02:45;;;;;;;9.07;6.05;;;;;;;2.36;34.03;102950.69;5089406;28;20036;-74
2021/03/06 04:05:14;;;;;;;8.07;4.95;;;;;;;2.35;34.13;102948.88;5094408;28;20040;-74
2021/03/06 04:07:43;;;;;;;11.13;5.93;;;;;;;2.33;34.33;102948.91;5089875;28;20048;-74
2021/03/06 04:10:13;;;;;;;9.35;5.68;;;;;;;2.31;34.45;102948.03;5092927;28;20039;-74
2021/03/06 04:12:43;;;;;;;7.78;4.68;;;;;;;2.30;33.99;102951.66;5094814;28;20036;-73
2021/03/06 04:15:17;;;;;;;8.52;5.00;;;;;;;2.28;34.15;102947.22;5086230;28;20036;-73
2021/03/06 04:18:05;;;;;;;7.95;4.90;;;;;;;2.26;34.22;102944.53;5072939;28;20475;-73
2021/03/06 04:20:34;;;;;;;7.82;4.82;;;;;;;2.27;34.54;102950.84;5094964;28;20123;-72
2021/03/06 04:23:01;;;;;;;7.38;5.03;;;;;;;2.26;34.00;102951.75;5060467;28;20048;-74
2021/03/06 04:25:30;;;;;;;7.43;4.95;;;;;;;2.24;34.24;102956.28;5086567;28;20112;-74
2021/03/06 04:27:57;;;;;;;8.25;5.18;;;;;;;2.23;34.56;102955.38;5089745;28;20040;-74
2021/03/06 04:30:26;;;;;;;7.75;4.75;;;;;;;2.22;34.56;102945.50;5093241;28;20048;-74
2021/03/06 04:32:53;;;;;;;9.18;4.68;;;;;;;2.18;34.43;102947.38;5089815;28;20119;-74
2021/03/06 04:35:21;;;;;;;8.20;4.50;;;;;;;2.18;34.43;102960.00;5077661;28;20070;-74
2021/03/06 04:37:49;;;;;;;8.45;4.90;;;;;;;2.17;34.48;102961.81;5088818;28;20110;-74
2021/03/06 04:40:17;;;;;;;8.93;5.07;;;;;;;2.14;34.33;102961.84;5073997;28;20048;-74
2021/03/06 04:42:44;;;;;;;6.80;4.50;;;;;;;2.13;34.58;102965.50;5092535;28;20035;-74
2021/03/06 04:45:12;;;;;;;8.50;4.75;;;;;;;2.13;34.15;102967.31;5096005;28;20081;-74
2021/03/06 04:47:40;;;;;;;6.28;4.25;;;;;;;2.13;34.66;102968.19;5093086;28;20036;-74
2021/03/06 04:50:10;;;;;;;7.90;4.28;;;;;;;2.11;34.39;102953.81;5088152;28;20111;-73
2021/03/06 04:52:37;;;;;;;7.07;4.20;;;;;;;2.09;34.65;102958.34;5091080;28;20044;-74
2021/03/06 04:55:07;;;;;;;7.90;4.63;;;;;;;2.10;34.40;102957.44;5089054;28;20071;-74
2021/03/06 04:57:35;;;;;;;8.10;4.60;;;;;;;2.08;34.50;102966.47;5097643;28;20042;-74
2021/03/06 05:00:04;;;;;;;6.78;4.43;;;;;;;2.07;34.50;102962.88;5086396;28;20533;-74
2021/03/06 05:02:32;;;;;;;8.55;4.78;;;;;;;2.06;34.81;102960.19;5098581;28;20134;-74
2021/03/06 05:05:00;;;;;;;7.13;4.28;;;;;;;2.05;34.88;102958.44;5089769;28;20040;-74
2021/03/06 05:07:28;;;;;;;7.00;4.10;;;;;;;2.03;34.35;102966.56;5096992;28;20039;-74
2021/03/06 05:09:55;;;;;;;7.03;4.50;;;;;;;2.03;34.48;102962.97;5089986;28;20055;-74
2021/03/06 05:12:23;;;;;;;7.78;3.88;;;;;;;2.02;34.57;102964.78;5094346;28;20055;-74
2021/03/06 05:14:50;;;;;;;6.85;4.68;;;;;;;2.01;34.65;102959.41;5094980;28;20217;-74
2021/03/06 05:17:17;;;;;;;7.90;4.15;;;;;;;2.00;34.83;102954.91;5090454;28;20036;-74
2021/03/06 05:19:45;;;;;;;7.72;4.18;;;;;;;1.97;34.75;102958.53;5091392;28;20049;-74
2021/03/06 05:22:12;;;;;;;7.43;4.55;;;;;;;1.97;34.92;102966.66;5084838;28;20063;-74
2021/03/06 05:24:39;;;;;;;6.65;4.15;;;;;;;1.97;34.83;102969.34;5088270;28;20043;-74
2021/03/06 05:27:10;;;;;;;8.10;4.50;;;;;;;1.95;34.53;102963.09;5070455;28;20075;-74
2021/03/06 05:29:38;;;;;;;8.10;4.13;;;;;;;1.95;34.65;102963.09;5093543;28;20043;-74
2021/03/06 05:32:06;;;;;;;8.65;4.45;;;;;;;1.94;34.87;102969.41;5088875;28;20044;-73
2021/03/06 05:34:34;;;;;;;7.63;4.13;;;;;;;1.92;34.84;102967.66;5094733;28;20040;-73
2021/03/06 05:37:04;;;;;;;6.35;3.60;;;;;;;1.91;35.07;102973.97;5089630;28;20046;-73
2021/03/06 05:39:31;;;;;;;7.05;4.35;;;;;;;1.91;34.90;102976.66;5098767;28;20039;-73
2021/03/06 05:41:59;;;;;;;7.95;4.00;;;;;;;1.89;35.11;102973.97;5087601;28;20044;-74
2021/03/06 05:44:26;;;;;;;6.65;4.05;;;;;;;1.88;34.74;102966.81;5068598;28;20039;-73
2021/03/06 05:46:56;;;;;;;5.68;3.60;;;;;;;1.89;35.08;102968.59;5093212;28;20040;-74
2021/03/06 05:49:24;;;;;;;8.80;4.30;;;;;;;1.86;35.04;102968.66;5090785;28;20040;-73
2021/03/06 05:51:53;;;;;;;7.28;4.00;;;;;;;1.86;34.74;102965.97;5087498;28;20036;-73
2021/03/06 05:54:22;;;;;;;6.80;4.00;;;;;;;1.85;35.03;102969.56;5089268;28;20055;-75
2021/03/06 05:56:51;;;;;;;6.78;4.10;;;;;;;1.83;35.22;102963.28;5085779;28;20044;-75
2021/03/06 05:59:19;;;;;;;7.15;3.90;;;;;;;1.83;35.06;102966.00;5086168;28;20047;-74
2021/03/06 06:01:48;;;;;;;7.00;4.10;;;;;;;1.82;35.28;102960.63;5089562;28;20044;-74
2021/03/06 06:04:18;;;;;;;6.05;4.00;;;;;;;1.82;35.14;102975.00;5093155;28;20123;-74
2021/03/06 06:06:46;;;;;;;6.57;3.80;;;;;;;1.79;35.31;102970.56;5079055;28;20550;-74
2021/03/06 06:09:13;;;;;;;6.65;4.20;;;;;;;1.79;35.22;102977.78;5097423;28;20039;-75
2021/03/06 06:11:41;;;;;;;6.00;3.70;;;;;;;1.79;35.01;102983.16;5098275;28;20043;-74
2021/03/06 06:14:08;;;;;;;6.28;3.70;;;;;;;1.76;34.97;102981.41;5097036;28;20046;-75
2021/03/06 06:16:35;;;;;;;6.22;3.60;;;;;;;1.77;35.17;102980.50;5091477;28;20127;-74
2021/03/06 06:19:04;;;;;;;9.80;4.43;;;;;;;1.77;35.02;102983.19;5086383;28;20035;-75
2021/03/06 06:21:40;;;;;;;7.65;4.45;;;;;;;1.79;35.47;102983.16;5089010;28;20040;-75
2021/03/06 06:24:09;;;;;;;7.82;4.07;;;;;;;1.74;35.06;102988.63;5090459;28;20036;-74
2021/03/06 06:26:38;;;;;;;9.07;4.32;;;;;;;1.75;35.32;102984.13;5071401;28;20074;-74
2021/03/06 06:29:05;;;;;;;7.22;4.18;;;;;;;1.73;35.27;102986.84;5091123;28;20446;-74
2021/03/06 06:31:33;;;;;;;7.65;4.22;;;;;;;1.71;35.41;102988.69;5067950;28;20043;-74
2021/03/06 06:34:11;;;;;;;7.43;4.30;;;;;;;1.71;35.45;102991.38;5076003;28;20036;-74
2021/03/06 06:36:40;;;;;;;7.25;4.13;;;;;;;1.72;35.28;102997.69;5092636;28;20051;-75
2021/03/06 06:39:09;;;;;;;7.00;3.88;;;;;;;1.71;35.28;103006.69;5093381;28;20040;-74
2021/03/06 06:41:53;;;;;;;6.65;3.80;;;;;;;1.71;35.84;103012.06;5095491;28;20051;-75
2021/03/06 06:44:23;;;;;;;6.25;3.80;;;;;;;1.68;35.55;103013.00;5087096;28;20036;-74
2021/03/06 06:46:51;;;;;;;6.60;3.78;;;;;;;1.68;35.53;103012.09;5085930;28;20047;-74
2021/03/06 06:49:20;;;;;;;5.95;3.47;;;;;;;1.69;35.17;103011.19;5086329;28;20040;-75
2021/03/06 06:51:58;;;;;;;6.30;3.72;;;;;;;1.70;36.03;103018.38;5091162;28;20060;-74
2021/03/06 06:54:26;;;;;;;6.88;3.60;;;;;;;1.67;35.36;103013.91;5087708;28;20055;-74
2021/03/06 06:57:11;;;;;;;5.82;3.40;;;;;;;1.68;36.36;103021.09;5083697;28;20506;-74
2021/03/06 06:59:40;;;;;;;6.25;3.63;;;;;;;1.66;35.55;103019.31;5083537;28;20037;-74
2021/03/06 07:02:09;;;;;;;5.60;3.38;;;;;;;1.67;36.00;103019.31;5091727;28;20044;-74
2021/03/06 07:04:49;;;;;;;5.55;3.58;;;;;;;1.70;36.20;103016.56;5091994;28;20114;-75
2021/03/06 07:07:19;;;;;;;6.75;3.25;;;;;;;1.70;36.05;103018.38;5099067;28;20078;-74
2021/03/06 07:10:04;;;;;;;6.63;3.67;;;;;;;1.75;36.68;103020.09;5104073;28;20518;-74
2021/03/06 07:12:33;;;;;;;6.07;3.42;;;;;;;1.78;36.55;103021.84;5068997;28;20463;-74
2021/03/06 07:15:01;;;;;;;5.82;3.47;;;;;;;1.82;36.65;103017.28;5092421;28;20526;-75
2021/03/06 07:17:40;;;;;;;6.43;3.95;;;;;;;1.91;36.72;103030.63;5075076;28;20032;-75
2021/03/06 07:20:13;;;;;;;5.57;3.85;;;;;;;1.95;36.84;103021.59;5086093;28;21586;-75
2021/03/06 07:22:41;;;;;;;7.50;3.75;;;;;;;1.98;36.73;103026.91;5089417;28;20051;-74
2021/03/06 07:25:09;;;;;;;6.20;3.42;;;;;;;2.06;37.07;103028.59;5078302;28;20075;-74
2021/03/06 07:27:37;;;;;;;6.10;3.45;;;;;;;2.17;37.00;103033.81;5085105;28;20498;-74
2021/03/06 07:30:07;;;;;;;5.40;3.45;;;;;;;2.26;37.48;103033.66;5084501;28;20664;-74
2021/03/06 07:32:38;;;;;;;6.32;3.92;;;;;;;2.39;37.47;103039.72;5084082;28;20496;-74
2021/03/06 07:35:08;;;;;;;6.40;4.10;;;;;;;2.52;37.29;103038.59;5099082;28;20090;-74
2021/03/06 07:37:36;;;;;;;5.53;3.50;;;;;;;2.63;36.98;103041.13;5094625;28;20723;-73
2021/03/06 07:40:08;;;;;;;6.22;3.65;;;;;;;2.75;36.92;103036.38;5093558;28;20046;-73
2021/03/06 07:42:45;;;;;;;5.10;3.67;;;;;;;2.88;36.92;103048.72;5093700;28;20123;-74
2021/03/06 07:45:15;;;;;;;6.53;3.33;;;;;;;2.96;37.03;103040.44;5078344;28;20050;-73
2021/03/06 07:47:46;;;;;;;6.53;3.88;;;;;;;3.08;37.04;103050.13;5089545;28;20418;-73
2021/03/06 07:50:19;;;;;;;5.78;3.55;;;;;;;3.20;37.01;103052.59;5083874;28;20043;-73
2021/03/06 07:52:47;;;;;;;5.30;3.20;;;;;;;3.27;36.81;103057.84;5092240;28;20094;-73
2021/03/06 07:55:16;;;;;;;6.15;3.60;;;;;;;3.40;36.75;103061.19;5087584;28;20040;-73
2021/03/06 07:58:05;;;;;;;6.32;3.53;;;;;;;3.51;36.47;103056.44;5081667;28;20052;-69
2021/03/06 08:00:49;;;;;;;5.43;3.20;;;;;;;3.61;36.15;103057.16;5080671;28;20447;-67
2021/03/06 08:03:36;;;;;;;5.38;3.40;;;;;;;3.68;36.04;103053.38;5078911;28;20089;-74
2021/03/06 08:06:19;;;;;;;5.85;3.40;;;;;;;3.74;36.22;103060.47;5063373;28;20072;-74
2021/03/06 08:08:57;;;;;;;5.07;2.97;;;;;;;3.81;36.08;103054.88;5086959;28;20055;-74
2021/03/06 08:11:26;;;;;;;4.32;2.67;;;;;;;3.88;35.84;103055.63;5089116;28;20119;-74
2021/03/06 08:13:55;;;;;;;6.15;2.95;;;;;;;3.95;36.01;103068.06;5088555;28;20044;-74
2021/03/06 08:16:40;;;;;;;6.38;3.60;;;;;;;3.98;35.58;103058.09;5090282;28;20075;-73
2021/03/06 08:19:30;;;;;;;7.00;3.33;;;;;;;4.00;35.35;103063.47;5096003;28;20058;-73
2021/03/06 08:22:15;;;;;;;4.63;3.15;;;;;;;4.00;35.21;103056.22;5069685;28;20040;-74
2021/03/06 08:24:43;;;;;;;3.80;2.58;;;;;;;4.01;35.30;103055.31;5097507;28;20113;-74
2021/03/06 08:27:19;;;;;;;4.00;2.70;;;;;;;4.05;34.88;103053.41;5093004;28;20387;-74
2021/03/06 08:29:57;;;;;;;5.25;3.50;;;;;;;4.04;34.74;103057.03;5096391;28;20161;-74
2021/03/06 08:32:33;;;;;;;4.43;3.30;;;;;;;4.04;35.04;103055.22;5091621;28;20097;-74
2021/03/06 08:35:20;;;;;;;4.35;2.90;;;;;;;4.05;35.08;103053.41;5084530;28;20469;-74
2021/03/06 08:37:50;;;;;;;4.32;2.97;;;;;;;4.03;35.13;103056.13;5085543;28;20059;-74
2021/03/06 08:40:20;;;;;;;4.63;2.55;;;;;;;4.03;34.87;103061.56;5083030;28;20055;-73
2021/03/06 08:42:50;;;;;;;5.00;3.00;;;;;;;4.03;34.90;103058.84;5090256;28;20052;-74
2021/03/06 08:45:23;;;;;;;4.70;2.60;;;;;;;4.05;34.70;103054.28;5089827;28;20043;-73
2021/03/06 08:47:53;;;;;;;5.35;2.47;;;;;;;4.03;34.50;103049.81;5050311;28;20037;-73
2021/03/06 08:50:23;;;;;;;4.32;3.08;;;;;;;4.05;34.87;103042.56;5083729;28;20035;-74
2021/03/06 08:52:55;;;;;;;6.13;2.90;;;;;;;4.07;34.47;103040.72;5082587;28;20051;-73
2021/03/06 08:55:24;;;;;;;4.28;3.00;;;;;;;4.05;35.04;103051.59;5086781;28;20410;-73
2021/03/06 08:57:54;;;;;;;5.38;3.08;;;;;;;4.10;35.00;103046.06;5058694;28;20068;-74
2021/03/06 09:00:27;;;;;;;4.53;3.13;;;;;;;4.12;34.68;103046.00;5069479;28;20044;-74
2021/03/06 09:02:55;;;;;;;3.60;2.35;;;;;;;4.14;34.52;103053.19;5093912;28;20138;-74
2021/03/06 09:05:25;;;;;;;4.43;3.00;;;;;;;4.16;34.65;103054.03;5103999;28;20036;-74
2021/03/06 09:07:54;;;;;;;5.20;3.05;;;;;;;4.19;34.73;103044.97;5072966;28;20118;-74
2021/03/06 09:10:32;;;;;;;5.25;3.00;;;;;;;4.23;34.39;103046.66;5078963;28;20073;-74
2021/03/06 09:13:04;;;;;;;4.85;3.13;;;;;;;4.26;34.10;103046.56;5098910;28;20115;-74
2021/03/06 09:15:35;;;;;;;4.97;3.30;;;;;;;4.26;34.52;103050.19;5094118;28;20047;-73
2021/03/06 09:18:08;;;;;;;5.05;2.88;;;;;;;4.31;34.52;103050.94;5088366;28;20303;-74
2021/03/06 09:20:44;;;;;;;6.70;3.28;;;;;;;4.39;33.91;103058.88;5098203;28;20458;-73
2021/03/06 09:23:21;;;;;;;6.00;3.53;;;;;;;4.42;34.27;103057.00;5089494;28;20399;-74
2021/03/06 09:25:49;;;;;;;5.22;3.13;;;;;;;4.47;34.30;103054.16;5088615;28;20036;-74
2021/03/06 09:28:23;;;;;;;4.60;3.30;;;;;;;4.55;33.29;103054.84;5083681;28;20040;-74
2021/03/06 09:30:50;;;;;;;;;;;;;;;4.32;34.13;103052.72;5082880;28;20039;-73
2021/03/06 09:33:30;;;;;;;5.10;3.00;;;;;;;4.62;33.91;103055.56;5085011;28;19935;-74
2021/03/06 09:36:00;;;;;;;5.95;3.53;;;;;;;4.69;33.88;103058.06;5080496;28;20032;-74
2021/03/06 09:38:43;;;;;;;5.15;3.58;;;;;;;4.77;33.21;103052.47;5083873;28;20066;-73
2021/03/06 09:41:12;;;;;;;5.53;3.50;;;;;;;4.83;33.96;103058.59;5087338;28;20115;-74
2021/03/06 09:43:42;;;;;;;5.38;2.95;;;;;;;4.91;33.70;103052.97;5088361;28;20040;-74
2021/03/06 09:46:15;;;;;;;4.55;3.33;;;;;;;4.98;33.47;103054.56;5087084;28;20044;-73
2021/03/06 09:48:53;;;;;;;4.32;3.10;;;;;;;5.03;33.31;103049.88;5074655;28;20090;-73
2021/03/06 09:51:25;;;;;;;5.13;3.22;;;;;;;5.09;33.97;103052.44;5086339;28;20181;-73
2021/03/06 09:53:58;;;;;;;4.20;2.92;;;;;;;5.18;33.30;103049.44;5086166;28;20047;-73
2021/03/06 09:56:25;;;;;;;4.28;2.80;;;;;;;5.24;33.84;103048.41;5076180;28;20037;-73
2021/03/06 09:59:00;;;;;;;5.28;3.20;;;;;;;5.34;32.56;103043.59;5086758;28;20042;-73
2021/03/06 10:01:32;;;;;;;4.40;3.08;;;;;;;5.38;33.19;103048.88;5085196;28;20044;-72
2021/03/06 10:04:08;;;;;;;4.53;3.08;;;;;;;5.48;32.04;103042.28;5079784;28;20392;-73
2021/03/06 10:06:37;;;;;;;4.57;2.70;;;;;;;5.52;32.77;103043.94;5078792;28;20043;-74
2021/03/06 10:09:09;;;;;;;3.83;2.58;;;;;;;5.60;32.42;103039.16;5085948;28;20032;-73
2021/03/06 10:11:38;;;;;;;4.60;2.60;;;;;;;5.69;32.55;103037.09;5065647;28;20051;-72
2021/03/06 10:14:09;;;;;;;5.43;2.88;;;;;;;5.76;32.90;103030.56;5067750;28;20055;-73
2021/03/06 10:16:48;;;;;;;4.03;2.78;;;;;;;5.84;31.44;103031.22;5090708;28;20040;-72
2021/03/06 10:19:20;;;;;;;3.83;2.95;;;;;;;5.87;32.58;103031.97;5086190;28;20063;-72
2021/03/06 10:22:01;;;;;;;3.63;2.53;;;;;;;5.98;31.45;103029.81;5089432;28;20052;-73
2021/03/06 10:24:32;;;;;;;3.80;2.50;;;;;;;6.04;32.47;103028.72;5064414;28;20048;-72
2021/03/06 10:27:01;;;;;;;3.65;2.40;;;;;;;6.15;32.52;103025.66;5087491;28;20036;-73
2021/03/06 10:29:31;;;;;;;3.80;2.70;;;;;;;6.21;32.03;103015.47;5085872;28;20032;-72
2021/03/06 10:31:59;;;;;;;4.63;3.00;;;;;;;6.28;32.06;103013.41;5091328;28;20036;-73
2021/03/06 10:34:49;;;;;;;4.10;2.58;;;;;;;6.37;31.69;103015.81;5092648;28;20111;-73
2021/03/06 10:37:18;;;;;;;4.57;2.42;;;;;;;6.43;32.01;103010.16;5088544;28;20056;-73
2021/03/06 10:40:00;;;;;;;3.50;2.25;;;;;;;6.47;29.89;103006.41;5089724;28;20495;-72
2021/03/06 10:42:42;;;;;;;5.00;2.65;;;;;;;6.54;29.87;103001.63;5091312;28;20033;-72
2021/03/06 10:45:26;;;;;;;2.90;2.05;;;;;;;6.62;30.42;102999.53;5066696;28;20036;-73
2021/03/06 10:47:58;;;;;;;3.17;2.15;;;;;;;6.66;31.51;102999.38;5069452;28;20388;-73
2021/03/06 10:50:33;;;;;;;4.10;2.22;;;;;;;6.72;31.07;102999.16;5092319;28;20553;-73
2021/03/06 10:53:40;;;;;;;3.08;2.10;;;;;;;6.74;31.24;102991.84;5069356;28;20044;-73
2021/03/06 10:56:25;;;;;;;3.85;2.20;;;;;;;6.84;28.71;102994.19;5091502;28;20054;-73
2021/03/06 10:59:49;;;;;;;3.15;2.10;;;;;;;6.85;28.36;102995.97;5063176;28;20066;-71
2021/03/06 11:05:40;;;;;;;4.25;2.03;;;;;;;6.99;30.53;102993.66;5092075;28;20063;-72
2021/03/06 11:08:13;;;;;;;3.80;2.00;;;;;;;7.08;29.05;102987.88;5079719;28;20062;-72
2021/03/06 11:10:55;;;;;;;3.45;1.92;;;;;;;7.14;29.02;102992.22;5077241;28;20055;-73
2021/03/06 11:13:39;;;;;;;3.83;1.90;;;;;;;7.16;28.24;102991.19;5088348;28;20059;-73
2021/03/06 11:16:10;;;;;;;3.25;2.03;;;;;;;7.20;29.69;102984.69;5099622;28;20406;-72
2021/03/06 11:18:40;;;;;;;3.30;1.77;;;;;;;7.29;29.74;102980.72;5084233;28;20039;-72
2021/03/06 11:21:10;;;;;;;3.30;1.90;;;;;;;7.34;30.04;102974.13;5096175;28;20048;-72
2021/03/06 11:23:38;;;;;;;3.20;1.83;;;;;;;7.39;29.75;102974.88;5095041;28;20036;-72
2021/03/06 11:26:08;;;;;;;3.53;1.90;;;;;;;7.46;29.66;102973.69;5087463;28;20044;-72
2021/03/06 11:28:35;;;;;;;1.88;1.38;;;;;;;7.55;29.72;102971.53;5075387;28;20070;-72
2021/03/06 11:31:05;;;;;;;2.78;1.63;;;;;;;7.63;29.69;102966.66;5077717;28;20044;-72
2021/03/06 11:33:34;;;;;;;3.20;1.90;;;;;;;7.70;29.47;102966.34;5088706;28;20036;-72
2021/03/06 11:36:03;;;;;;;3.83;1.85;;;;;;;7.77;28.90;102956.97;5090737;28;20059;-72
2021/03/06 11:38:35;;;;;;;2.60;1.77;;;;;;;7.84;28.22;102955.75;5091870;28;20039;-71
2021/03/06 11:41:03;;;;;;;4.10;1.95;;;;;;;7.90;28.80;102953.75;5091100;28;20048;-72
2021/03/06 11:43:31;;;;;;;2.92;1.88;;;;;;;7.98;28.81;102951.59;5091108;28;20675;-73
2021/03/06 11:46:05;;;;;;;3.28;1.98;;;;;;;8.01;28.73;102949.59;5088925;28;20124;-73
2021/03/06 11:48:43;;;;;;;2.95;1.85;;;;;;;8.05;28.29;102942.19;5087455;28;20637;-73
2021/03/06 11:51:12;;;;;;;3.22;1.85;;;;;;;8.11;28.01;102951.00;5085136;28;20064;-72
2021/03/06 11:53:39;;;;;;;2.53;1.85;;;;;;;8.17;28.16;102939.81;5094378;28;20036;-73
2021/03/06 11:56:31;;;;;;;3.67;1.77;;;;;;;8.19;26.62;102937.03;5088102;28;20044;-73
2021/03/06 11:59:01;;;;;;;2.78;1.92;;;;;;;8.19;28.02;102934.31;5064412;28;20643;-73